Time;durP1;ratioP1;P1;durP2;ratioP2;P2;SDS_P1;SDS_P2;PMS_P1;PMS_P2;Temp;Humidity;BMP_temperature;BMP_pressure;BME280_temperature;BME280_humidity;BME280_pressure;Samples;Min_cycle;Max_cycle;Signal;HPM_P1;HPM_P2
2022/01/30 00:00:41;;;;;;;;;;;19.60;39.70;;;;;;5094202;28;20402;-64
2022/01/30 00:03:06;;;;;;;;;;;19.60;39.80;;;;;;5094538;28;19912;-64
2022/01/30 00:05:34;;;;;;;;;;;19.60;39.80;;;;;;5094265;28;19915;-64
2022/01/30 00:08:00;;;;;;;;;;;19.60;39.80;;;;;;5094228;28;19912;-64
2022/01/30 00:10:25;;;;;;;;;;;19.60;39.80;;;;;;5094206;28;19912;-63
2022/01/30 00:12:57;;;;;;;;;;;19.60;39.70;;;;;;5075991;28;19993;-63
2022/01/30 00:15:46;;;;;;;;;;;19.50;39.80;;;;;;5076042;28;20356;-65
2022/01/30 00:18:32;;;;;;;;;;;19.50;39.70;;;;;;5094091;28;19951;-64
2022/01/30 00:23:51;;;;;;;;;;;19.50;39.70;;;;;;5094261;28;19962;-62
2022/01/30 00:26:18;;;;;;;;;;;19.50;39.70;;;;;;5094017;28;19919;-63
2022/01/30 00:28:44;;;;;;;;;;;19.60;39.70;;;;;;5075783;28;19912;-63
2022/01/30 00:31:10;;;;;;;;;;;19.50;39.70;;;;;;5075920;28;19915;-64
2022/01/30 00:33:36;;;;;;;;;;;19.50;39.70;;;;;;5093892;28;19918;-64
2022/01/30 00:36:01;;;;;;;;;;;19.50;39.70;;;;;;5093474;28;19907;-65
2022/01/30 00:38:27;;;;;;;;;;;19.50;39.70;;;;;;5093653;28;19908;-64
2022/01/30 00:40:53;;;;;;;;;;;19.50;39.70;;;;;;5093895;28;19946;-64
2022/01/30 00:43:19;;;;;;;;;;;19.50;39.70;;;;;;5093645;28;20366;-64
2022/01/30 00:45:45;;;;;;;;;;;19.50;39.70;;;;;;5093865;28;19908;-63
2022/01/30 00:48:11;;;;;;;;;;;19.50;39.70;;;;;;5093643;28;19923;-64
2022/01/30 00:50:37;;;;;;;;;;;19.50;39.70;;;;;;5093742;28;19909;-64
2022/01/30 00:53:03;;;;;;;;;;;19.50;39.70;;;;;;5093565;28;19908;-65
2022/01/30 00:55:29;;;;;;;;;;;19.50;39.70;;;;;;5093311;28;19953;-64
2022/01/30 00:57:55;;;;;;;;;;;19.50;39.70;;;;;;5075465;28;19947;-64
2022/01/30 01:00:21;;;;;;;;;;;19.50;39.60;;;;;;5093374;28;19924;-64
2022/01/30 01:02:46;;;;;;;;;;;19.50;39.70;;;;;;5093734;28;20011;-64
2022/01/30 01:05:12;;;;;;;;;;;19.50;39.70;;;;;;5093469;28;19951;-64
2022/01/30 01:07:42;;;;;;;;;;;19.40;39.70;;;;;;5093416;28;20290;-64
2022/01/30 01:12:59;;;;;;;;;;;19.50;39.60;;;;;;5093735;28;19908;-65
2022/01/30 01:23:36;;;;;;;;;;;19.40;39.60;;;;;;5093519;28;19908;-65
2022/01/30 01:26:02;;;;;;;;;;;19.40;39.60;;;;;;5093306;28;19931;-63
2022/01/30 01:28:28;;;;;;;;;;;19.40;39.60;;;;;;5093412;28;19954;-64
2022/01/30 01:30:54;;;;;;;;;;;19.50;39.60;;;;;;5093244;28;20320;-64
2022/01/30 01:33:20;;;;;;;;;;;19.40;39.60;;;;;;5093235;28;20362;-64
2022/01/30 01:35:46;;;;;;;;;;;19.40;39.50;;;;;;5093215;28;20004;-64
2022/01/30 01:38:14;;;;;;;;;;;19.40;39.60;;;;;;5093135;28;19999;-65
2022/01/30 01:40:40;;;;;;;;;;;19.40;39.60;;;;;;5075048;28;19915;-64
2022/01/30 01:43:05;;;;;;;;;;;19.40;39.50;;;;;;5093186;28;20401;-65
2022/01/30 01:45:35;;;;;;;;;;;19.40;39.50;;;;;;5093424;28;19955;-64
2022/01/30 01:48:08;;;;;;;;;;;19.40;39.50;;;;;;5094754;28;19966;-65
2022/01/30 01:50:39;;;;;;;;;;;19.40;39.50;;;;;;5097001;28;19915;-64
2022/01/30 01:53:09;;;;;;;;;;;19.40;39.50;;;;;;5078752;28;19908;-65
2022/01/30 01:55:36;;;;;;;;;;;19.40;39.50;;;;;;5096689;28;20276;-65
2022/01/30 01:58:01;;;;;;;;;;;19.40;39.50;;;;;;5078525;28;19970;-65
2022/01/30 02:00:27;;;;;;;;;;;19.40;39.50;;;;;;5096554;28;19920;-64
2022/01/30 02:02:54;;;;;;;;;;;19.30;39.50;;;;;;5096704;28;19909;-64
2022/01/30 02:05:20;;;;;;;;;;;19.40;39.50;;;;;;5096627;28;19954;-64
2022/01/30 02:10:39;;;;;;;;;;;19.40;39.50;;;;;;5097226;28;19970;-64
2022/01/30 02:13:38;;;;;;;;;;;19.30;39.50;;;;;;5096860;28;19916;-64
2022/01/30 02:24:31;;;;;;;;;;;19.30;39.40;;;;;;5096307;28;19954;-64
2022/01/30 02:26:57;;;;;;;;;;;19.30;39.50;;;;;;5096257;28;19947;-64
2022/01/30 02:29:22;;;;;;;;;;;19.30;39.40;;;;;;5096076;28;19971;-63
2022/01/30 02:31:48;;;;;;;;;;;19.30;39.50;;;;;;5096119;28;19994;-64
2022/01/30 02:34:14;;;;;;;;;;;19.30;39.40;;;;;;5096104;28;19908;-63
2022/01/30 02:36:48;;;;;;;;;;;19.30;39.40;;;;;;5096087;28;19915;-65
2022/01/30 02:39:14;;;;;;;;;;;19.30;39.40;;;;;;5096346;28;19908;-64
2022/01/30 02:41:40;;;;;;;;;;;19.30;39.40;;;;;;5095968;28;19934;-64
2022/01/30 02:44:14;;;;;;;;;;;19.30;39.40;;;;;;5095909;28;19915;-64
2022/01/30 02:46:44;;;;;;;;;;;19.30;39.40;;;;;;5096107;28;19915;-64
2022/01/30 02:50:08;;;;;;;;;;;19.30;39.40;;;;;;5095614;28;19916;-64
2022/01/30 02:52:01;;;;;;;;;;;19.30;39.40;;;;;;5079432;28;19908;-64
2022/01/30 02:54:27;;;;;;;;;;;19.30;39.40;;;;;;5095514;28;20379;-63
2022/01/30 02:56:53;;;;;;;;;;;19.30;39.40;;;;;;5095649;28;19930;-64
2022/01/30 02:59:19;;;;;;;;;;;19.30;39.40;;;;;;5095125;28;19920;-64
2022/01/30 03:01:45;;;;;;;;;;;19.30;39.40;;;;;;5095505;28;19915;-64
2022/01/30 03:04:10;;;;;;;;;;;19.30;39.40;;;;;;5095458;28;20287;-64
2022/01/30 03:06:36;;;;;;;;;;;19.20;39.40;;;;;;5095527;28;19938;-63
2022/01/30 03:09:03;;;;;;;;;;;19.20;39.30;;;;;;5095201;28;19970;-65
2022/01/30 03:11:29;;;;;;;;;;;19.30;39.40;;;;;;5095171;28;19908;-65
2022/01/30 03:13:54;;;;;;;;;;;19.20;39.40;;;;;;5095178;28;19915;-65
2022/01/30 03:16:23;;;;;;;;;;;19.30;39.30;;;;;;5095230;28;19938;-64
2022/01/30 03:18:49;;;;;;;;;;;19.20;39.30;;;;;;5095152;28;19958;-64
2022/01/30 03:21:14;;;;;;;;;;;19.20;39.30;;;;;;5095093;28;19908;-64
2022/01/30 03:23:40;;;;;;;;;;;19.20;39.30;;;;;;5095030;28;20386;-64
2022/01/30 03:26:06;;;;;;;;;;;19.20;39.30;;;;;;5095160;28;19908;-64
2022/01/30 03:28:32;;;;;;;;;;;19.20;39.30;;;;;;5095041;28;19914;-64
2022/01/30 03:31:03;;;;;;;;;;;19.20;39.30;;;;;;5094939;28;19916;-63
2022/01/30 03:33:29;;;;;;;;;;;19.20;39.30;;;;;;5095035;28;19993;-64
2022/01/30 03:35:55;;;;;;;;;;;19.20;39.30;;;;;;5094705;28;19908;-63
2022/01/30 03:38:21;;;;;;;;;;;19.20;39.30;;;;;;5094748;28;20375;-64
2022/01/30 03:40:47;;;;;;;;;;;19.20;39.30;;;;;;5094830;28;19919;-64
2022/01/30 03:43:12;;;;;;;;;;;19.20;39.30;;;;;;5094672;28;20405;-63
2022/01/30 03:45:38;;;;;;;;;;;19.20;39.30;;;;;;5094590;28;19958;-63
2022/01/30 03:48:03;;;;;;;;;;;19.20;39.30;;;;;;5094459;28;19951;-63
2022/01/30 03:50:29;;;;;;;;;;;19.20;39.30;;;;;;5076334;28;19908;-64
2022/01/30 03:52:54;;;;;;;;;;;19.20;39.20;;;;;;5094427;28;20368;-63
2022/01/30 03:55:20;;;;;;;;;;;19.20;39.30;;;;;;5094667;28;20391;-64
2022/01/30 03:57:46;;;;;;;;;;;19.20;39.20;;;;;;5094602;28;19977;-64
2022/01/30 04:00:11;;;;;;;;;;;19.20;39.20;;;;;;5094157;28;20002;-64
2022/01/30 04:02:37;;;;;;;;;;;19.20;39.20;;;;;;5094174;28;19909;-64
2022/01/30 04:05:02;;;;;;;;;;;19.20;39.20;;;;;;5094224;28;19963;-63
2022/01/30 04:07:30;;;;;;;;;;;19.20;39.20;;;;;;5094107;28;19908;-64
2022/01/30 04:09:55;;;;;;;;;;;19.20;39.20;;;;;;5093624;28;19916;-64
2022/01/30 04:12:21;;;;;;;;;;;19.10;39.20;;;;;;5094269;28;19908;-64
2022/01/30 04:14:47;;;;;;;;;;;19.10;39.20;;;;;;5094083;28;19912;-64
2022/01/30 04:17:13;;;;;;;;;;;19.10;39.20;;;;;;5094076;28;19908;-64
2022/01/30 04:19:39;;;;;;;;;;;19.20;39.20;;;;;;5094041;28;19915;-64
2022/01/30 04:22:05;;;;;;;;;;;19.10;39.20;;;;;;5094092;28;19908;-64
2022/01/30 04:24:31;;;;;;;;;;;19.10;39.20;;;;;;5094192;28;20310;-63
2022/01/30 04:26:56;;;;;;;;;;;19.20;39.20;;;;;;5093918;28;20352;-64
2022/01/30 04:29:22;;;;;;;;;;;19.10;39.20;;;;;;5093780;28;19961;-63
2022/01/30 04:31:50;;;;;;;;;;;19.20;39.20;;;;;;5093715;28;19912;-64
2022/01/30 04:34:16;;;;;;;;;;;19.10;39.10;;;;;;5093795;28;19908;-64
2022/01/30 04:36:56;;;;;;;;;;;19.20;39.20;;;;;;5093852;28;19916;-64
2022/01/30 04:58:51;;;;;;;;;;;19.10;39.10;;;;;;5093854;28;19919;-63
2022/01/30 05:01:24;;;;;;;;;;;19.10;39.10;;;;;;5093325;28;20014;-63
2022/01/30 05:03:59;;;;;;;;;;;19.10;39.10;;;;;;5093582;28;19908;-64
2022/01/30 05:06:51;;;;;;;;;;;19.10;39.10;;;;;;5093389;28;19908;-63
2022/01/30 05:09:16;;;;;;;;;;;19.10;39.10;;;;;;5093147;28;20007;-63
2022/01/30 05:11:41;;;;;;;;;;;19.10;39.10;;;;;;5093252;28;20029;-63
2022/01/30 05:14:07;;;;;;;;;;;19.10;39.00;;;;;;5093560;28;19912;-64
2022/01/30 05:16:34;;;;;;;;;;;19.20;39.10;;;;;;5093313;28;19908;-63
2022/01/30 05:19:00;;;;;;;;;;;19.20;39.00;;;;;;5093325;28;19919;-64
2022/01/30 05:21:25;;;;;;;;;;;19.20;39.00;;;;;;5093209;28;20341;-63
2022/01/30 05:23:51;;;;;;;;;;;19.20;38.90;;;;;;5096321;28;19988;-64
2022/01/30 05:26:19;;;;;;;;;;;19.20;38.90;;;;;;5097300;28;19912;-63
2022/01/30 05:28:45;;;;;;;;;;;19.20;38.90;;;;;;5097390;28;19912;-64
2022/01/30 05:31:10;;;;;;;;;;;19.20;38.80;;;;;;5097124;28;20317;-63
2022/01/30 05:33:36;;;;;;;;;;;19.30;38.80;;;;;;5097217;28;20072;-64
2022/01/30 05:36:02;;;;;;;;;;;19.30;38.80;;;;;;5079063;28;20275;-63
2022/01/30 05:38:28;;;;;;;;;;;19.30;38.70;;;;;;5097022;28;20002;-64
2022/01/30 05:40:53;;;;;;;;;;;19.30;38.80;;;;;;5097096;28;20408;-64
2022/01/30 05:43:19;;;;;;;;;;;19.30;38.70;;;;;;5096972;28;19908;-63
2022/01/30 05:45:50;;;;;;;;;;;19.40;38.70;;;;;;5097109;28;19908;-63
2022/01/30 05:48:17;;;;;;;;;;;19.40;38.60;;;;;;5096905;28;20006;-63
2022/01/30 05:50:44;;;;;;;;;;;19.40;38.60;;;;;;5078716;28;20264;-63
2022/01/30 05:53:09;;;;;;;;;;;19.40;38.60;;;;;;5078627;28;20386;-63
2022/01/30 05:55:35;;;;;;;;;;;19.40;38.70;;;;;;5096767;28;19911;-64
2022/01/30 05:58:01;;;;;;;;;;;19.40;38.70;;;;;;5096723;28;19916;-63
2022/01/30 06:00:26;;;;;;;;;;;19.50;38.60;;;;;;5096591;28;20007;-64
2022/01/30 06:02:52;;;;;;;;;;;19.50;38.40;;;;;;5096693;28;20291;-65
2022/01/30 06:05:20;;;;;;;;;;;19.50;38.50;;;;;;5096723;28;20412;-64
2022/01/30 06:07:56;;;;;;;;;;;19.50;38.40;;;;;;5096542;28;20067;-64
2022/01/30 06:10:24;;;;;;;;;;;19.50;38.60;;;;;;5096578;28;20413;-63
2022/01/30 06:12:49;;;;;;;;;;;19.50;38.50;;;;;;5096571;28;19912;-63
2022/01/30 06:15:15;;;;;;;;;;;19.50;38.60;;;;;;5096450;28;20477;-64
2022/01/30 06:17:41;;;;;;;;;;;19.50;38.40;;;;;;5096421;28;20050;-64
2022/01/30 06:20:07;;;;;;;;;;;19.50;38.50;;;;;;5096393;28;19912;-63
2022/01/30 06:22:32;;;;;;;;;;;19.50;38.40;;;;;;5096079;28;19909;-64
2022/01/30 06:24:58;;;;;;;;;;;19.50;38.40;;;;;;5096418;28;19919;-64
2022/01/30 06:27:23;;;;;;;;;;;19.50;38.40;;;;;;5096352;28;19912;-64
2022/01/30 06:29:49;;;;;;;;;;;19.50;38.40;;;;;;5096148;28;19923;-64
2022/01/30 06:32:16;;;;;;;;;;;19.50;38.40;;;;;;5096085;28;19996;-64
2022/01/30 06:34:41;;;;;;;;;;;19.50;38.50;;;;;;5095532;28;19908;-64
2022/01/30 06:37:07;;;;;;;;;;;19.50;38.40;;;;;;5095999;28;20391;-63
2022/01/30 06:39:32;;;;;;;;;;;19.50;38.40;;;;;;5095862;28;19908;-64
2022/01/30 06:41:58;;;;;;;;;;;19.60;38.40;;;;;;5095818;28;19908;-63
2022/01/30 06:44:23;;;;;;;;;;;19.60;38.40;;;;;;5096023;28;19914;-63
2022/01/30 06:46:49;;;;;;;;;;;19.50;38.30;;;;;;5095870;28;20433;-65
2022/01/30 06:49:14;;;;;;;;;;;19.50;38.30;;;;;;5095681;28;19963;-64
2022/01/30 06:51:40;;;;;;;;;;;19.60;38.30;;;;;;5095879;28;19908;-64
2022/01/30 06:54:05;;;;;;;;;;;19.50;38.40;;;;;;5095655;28;19916;-64
2022/01/30 06:56:31;;;;;;;;;;;19.60;38.20;;;;;;5095754;28;20279;-64
2022/01/30 06:58:56;;;;;;;;;;;19.60;38.30;;;;;;5095410;28;20080;-63
2022/01/30 07:01:23;;;;;;;;;;;19.50;38.30;;;;;;5095845;28;20287;-63
2022/01/30 07:03:48;;;;;;;;;;;19.60;38.30;;;;;;5095482;28;19908;-64
2022/01/30 07:06:14;;;;;;;;;;;19.50;38.20;;;;;;5077198;28;19915;-63
2022/01/30 07:08:39;;;;;;;;;;;19.60;38.20;;;;;;5095317;28;19922;-63
2022/01/30 07:11:05;;;;;;;;;;;19.50;38.30;;;;;;5095349;28;19915;-63
2022/01/30 07:13:30;;;;;;;;;;;19.60;38.30;;;;;;5095516;28;20375;-64
2022/01/30 07:15:55;;;;;;;;;;;19.60;38.30;;;;;;5077146;28;20019;-63
2022/01/30 07:18:21;;;;;;;;;;;19.60;38.30;;;;;;5095174;28;19915;-64
2022/01/30 07:20:46;;;;;;;;;;;19.60;38.30;;;;;;5095107;28;20410;-64
2022/01/30 07:23:12;;;;;;;;;;;19.60;38.20;;;;;;5095283;28;20248;-63
2022/01/30 07:25:37;;;;;;;;;;;19.60;38.20;;;;;;5094983;28;20389;-63
2022/01/30 07:28:03;;;;;;;;;;;19.60;38.30;;;;;;5094941;28;19909;-65
2022/01/30 07:30:28;;;;;;;;;;;19.60;38.20;;;;;;5095162;28;20049;-64
2022/01/30 07:32:54;;;;;;;;;;;19.60;38.20;;;;;;5076757;28;19915;-63
2022/01/30 07:35:20;;;;;;;;;;;19.60;38.20;;;;;;5094767;28;20003;-63
2022/01/30 07:37:46;;;;;;;;;;;19.60;38.10;;;;;;5094817;28;20008;-64
2022/01/30 07:40:12;;;;;;;;;;;19.60;38.10;;;;;;5094691;28;20382;-64
2022/01/30 07:42:37;;;;;;;;;;;19.60;38.10;;;;;;5094820;28;19912;-64
2022/01/30 07:45:04;;;;;;;;;;;19.60;38.20;;;;;;5093960;28;19915;-63
2022/01/30 07:47:30;;;;;;;;;;;19.60;38.10;;;;;;5094654;28;19991;-63
2022/01/30 07:49:56;;;;;;;;;;;19.70;38.10;;;;;;5094457;28;20022;-63
2022/01/30 07:52:22;;;;;;;;;;;19.70;38.10;;;;;;5094586;28;19908;-64
2022/01/30 07:54:48;;;;;;;;;;;19.70;38.10;;;;;;5094587;28;19946;-64
2022/01/30 07:57:14;;;;;;;;;;;19.70;38.00;;;;;;5094396;28;20003;-63
2022/01/30 07:59:40;;;;;;;;;;;19.70;38.00;;;;;;5094239;28;19927;-64
2022/01/30 08:02:05;;;;;;;;;;;19.70;37.90;;;;;;5076187;28;19908;-64
2022/01/30 08:04:31;;;;;;;;;;;19.70;37.90;;;;;;5094514;28;19909;-63
2022/01/30 08:06:56;;;;;;;;;;;19.70;38.00;;;;;;5094262;28;19912;-63
2022/01/30 08:09:22;;;;;;;;;;;19.70;37.90;;;;;;5094088;28;19916;-63
2022/01/30 08:11:47;;;;;;;;;;;19.70;37.80;;;;;;5094304;28;19908;-64
2022/01/30 08:14:13;;;;;;;;;;;19.70;37.80;;;;;;5094392;28;19908;-63
2022/01/30 08:16:39;;;;;;;;;;;19.70;37.90;;;;;;5094116;28;19908;-63
2022/01/30 08:19:04;;;;;;;;;;;19.70;37.80;;;;;;5094117;28;20314;-63
2022/01/30 08:21:30;;;;;;;;;;;19.70;37.80;;;;;;5075846;28;19915;-64
2022/01/30 08:23:56;;;;;;;;;;;19.70;37.80;;;;;;5075777;28;19916;-63
2022/01/30 08:26:21;;;;;;;;;;;19.70;37.90;;;;;;5093801;28;19931;-63
2022/01/30 08:28:46;;;;;;;;;;;19.70;37.90;;;;;;5093849;28;19920;-64
2022/01/30 08:31:12;;;;;;;;;;;19.70;37.80;;;;;;5093789;28;19943;-64
2022/01/30 08:33:38;;;;;;;;;;;19.80;37.90;;;;;;5093710;28;19992;-63
2022/01/30 08:36:03;;;;;;;;;;;19.80;38.00;;;;;;5093516;28;19930;-63
2022/01/30 08:38:29;;;;;;;;;;;19.80;37.80;;;;;;5093608;28;19943;-63
2022/01/30 08:40:54;;;;;;;;;;;19.70;37.80;;;;;;5093720;28;19915;-63
2022/01/30 08:43:21;;;;;;;;;;;19.80;37.80;;;;;;5093688;28;20372;-63
2022/01/30 08:45:50;;;;;;;;;;;19.80;37.90;;;;;;5093650;28;19919;-64
2022/01/30 08:48:16;;;;;;;;;;;19.80;38.00;;;;;;5093768;28;19912;-63
2022/01/30 08:50:42;;;;;;;;;;;19.80;37.80;;;;;;5093552;28;20321;-64
2022/01/30 08:53:08;;;;;;;;;;;19.80;38.00;;;;;;5093575;28;19914;-63
2022/01/30 08:55:33;;;;;;;;;;;19.80;37.90;;;;;;5093583;28;19909;-64
2022/01/30 08:58:00;;;;;;;;;;;19.80;37.90;;;;;;5093307;28;19908;-63
2022/01/30 09:00:25;;;;;;;;;;;19.80;37.90;;;;;;5093364;28;19981;-64
2022/01/30 09:02:51;;;;;;;;;;;19.80;38.00;;;;;;5093397;28;19908;-64
2022/01/30 09:05:16;;;;;;;;;;;19.80;37.90;;;;;;5093448;28;20421;-64
2022/01/30 09:07:42;;;;;;;;;;;19.80;37.90;;;;;;5093549;28;19936;-64
2022/01/30 09:10:09;;;;;;;;;;;19.80;37.90;;;;;;5093359;28;19916;-63
2022/01/30 09:12:35;;;;;;;;;;;19.80;37.90;;;;;;5093378;28;19915;-63
2022/01/30 09:15:02;;;;;;;;;;;19.80;37.90;;;;;;5093295;28;19908;-63
2022/01/30 09:17:28;;;;;;;;;;;19.80;38.00;;;;;;5093168;28;20366;-64
2022/01/30 09:19:53;;;;;;;;;;;19.80;37.90;;;;;;5093346;28;19908;-64
2022/01/30 09:22:19;;;;;;;;;;;19.80;37.90;;;;;;5093273;28;19908;-63
2022/01/30 09:24:45;;;;;;;;;;;19.80;37.90;;;;;;5075224;28;19961;-63
2022/01/30 09:27:10;;;;;;;;;;;19.80;38.00;;;;;;5093213;28;19909;-64
2022/01/30 09:29:36;;;;;;;;;;;19.80;38.00;;;;;;5093203;28;19916;-63
2022/01/30 09:32:03;;;;;;;;;;;19.80;37.90;;;;;;5093038;28;19908;-64
2022/01/30 09:34:28;;;;;;;;;;;19.90;37.90;;;;;;5093297;28;19915;-63
2022/01/30 09:36:54;;;;;;;;;;;19.80;38.00;;;;;;5093177;28;20025;-64
2022/01/30 09:39:19;;;;;;;;;;;19.80;38.00;;;;;;5093151;28;19931;-63
2022/01/30 09:41:45;;;;;;;;;;;19.80;37.90;;;;;;5093141;28;19985;-63
2022/01/30 09:44:11;;;;;;;;;;;19.80;37.80;;;;;;5093080;28;19915;-64
2022/01/30 09:46:39;;;;;;;;;;;19.90;37.90;;;;;;5093025;28;19908;-64
2022/01/30 09:49:06;;;;;;;;;;;19.90;37.80;;;;;;5092912;28;19916;-63
2022/01/30 09:51:31;;;;;;;;;;;19.90;37.90;;;;;;5093029;28;19916;-63
2022/01/30 09:53:57;;;;;;;;;;;19.90;37.90;;;;;;5093333;28;20332;-64
2022/01/30 09:56:22;;;;;;;;;;;19.90;37.60;;;;;;5093066;28;20272;-64
2022/01/30 09:58:47;;;;;;;;;;;19.90;37.70;;;;;;5092832;28;20235;-63
2022/01/30 10:01:13;;;;;;;;;;;20.00;37.80;;;;;;5092897;28;20007;-63
2022/01/30 10:03:38;;;;;;;;;;;20.00;37.80;;;;;;5093116;28;20272;-64
2022/01/30 10:06:12;;;;;;;;;;;20.00;37.80;;;;;;5092870;28;20045;-64
2022/01/30 10:08:42;;;;;;;;;;;20.00;37.80;;;;;;5093735;28;20268;-64
2022/01/30 10:11:27;;;;;;;;;;;20.00;37.70;;;;;;5096690;28;19908;-63
2022/01/30 10:14:03;;;;;;;;;;;20.00;37.70;;;;;;5096815;28;20352;-64
2022/01/30 10:16:32;;;;;;;;;;;20.00;37.70;;;;;;5096282;28;19908;-64
2022/01/30 10:19:06;;;;;;;;;;;19.90;37.70;;;;;;5096352;28;19912;-64
2022/01/30 10:21:32;;;;;;;;;;;20.00;37.60;;;;;;5078123;28;19915;-63
2022/01/30 10:23:57;;;;;;;;;;;20.00;37.80;;;;;;5096356;28;19912;-64
2022/01/30 10:26:32;;;;;;;;;;;20.00;37.80;;;;;;5096361;28;19908;-63
2022/01/30 10:29:16;;;;;;;;;;;20.00;37.70;;;;;;5096315;28;19920;-65
2022/01/30 10:32:00;;;;;;;;;;;20.00;37.70;;;;;;5078008;28;19908;-64
2022/01/30 10:34:29;;;;;;;;;;;20.00;37.60;;;;;;5096290;28;19915;-64
2022/01/30 10:37:13;;;;;;;;;;;20.10;37.60;;;;;;5096068;28;20367;-64
2022/01/30 10:39:57;;;;;;;;;;;20.10;37.70;;;;;;5096147;28;19938;-64
2022/01/30 10:42:33;;;;;;;;;;;20.10;37.60;;;;;;5095952;28;20007;-65
2022/01/30 10:44:59;;;;;;;;;;;20.10;37.60;;;;;;5095784;28;20297;-63
2022/01/30 10:47:24;;;;;;;;;;;20.10;37.60;;;;;;5096092;28;19908;-63
2022/01/30 10:49:50;;;;;;;;;;;20.10;37.60;;;;;;5095673;28;19916;-64
2022/01/30 10:52:15;;;;;;;;;;;20.10;37.60;;;;;;5095812;28;19997;-63
2022/01/30 10:54:41;;;;;;;;;;;20.10;37.60;;;;;;5077547;28;20363;-65
2022/01/30 10:57:08;;;;;;;;;;;20.10;37.60;;;;;;5077454;28;19912;-64
2022/01/30 10:59:34;;;;;;;;;;;20.10;37.70;;;;;;5095289;28;19927;-63
2022/01/30 11:02:10;;;;;;;;;;;20.00;37.70;;;;;;5094791;28;22332;-64
2022/01/30 11:04:35;;;;;;;;;;;20.00;37.70;;;;;;5095616;28;19908;-64
2022/01/30 11:07:02;;;;;;;;;;;20.00;37.70;;;;;;5095428;28;19915;-64
2022/01/30 11:09:32;;;;;;;;;;;20.00;37.70;;;;;;5095308;28;20010;-65
2022/01/30 11:12:04;;;;;;;;;;;20.00;37.80;;;;;;5095428;28;19942;-65
2022/01/30 11:14:51;;;;;;;;;;;20.00;37.80;;;;;;5077227;28;19943;-65
2022/01/30 11:17:18;;;;;;;;;;;19.90;37.80;;;;;;5095259;28;19908;-64
2022/01/30 11:19:48;;;;;;;;;;;20.00;37.80;;;;;;5077000;28;19912;-64
2022/01/30 11:22:16;;;;;;;;;;;19.90;37.80;;;;;;5095184;28;19915;-64
2022/01/30 11:24:43;;;;;;;;;;;19.90;37.80;;;;;;5095315;28;19908;-64
2022/01/30 11:27:09;;;;;;;;;;;19.90;37.80;;;;;;5095092;28;20364;-64
2022/01/30 11:29:35;;;;;;;;;;;19.90;37.80;;;;;;5076852;28;20069;-64
2022/01/30 11:32:02;;;;;;;;;;;19.90;37.80;;;;;;5095065;28;19915;-64
2022/01/30 11:34:28;;;;;;;;;;;19.90;37.80;;;;;;5094918;28;19912;-65
2022/01/30 11:36:54;;;;;;;;;;;19.90;37.80;;;;;;5094955;28;19915;-64
2022/01/30 11:39:20;;;;;;;;;;;19.90;37.80;;;;;;5094633;28;19912;-66
2022/01/30 11:42:04;;;;;;;;;;;19.90;37.80;;;;;;5094823;28;19950;-65
2022/01/30 11:44:30;;;;;;;;;;;19.90;37.80;;;;;;5094678;28;19920;-64
2022/01/30 11:46:55;;;;;;;;;;;19.90;37.70;;;;;;5094737;28;19908;-65
2022/01/30 11:49:21;;;;;;;;;;;20.00;37.60;;;;;;5094434;28;19916;-65
2022/01/30 11:51:49;;;;;;;;;;;20.00;37.70;;;;;;5094510;28;20019;-64
2022/01/30 11:54:33;;;;;;;;;;;20.00;37.60;;;;;;5094504;28;19908;-63
2022/01/30 11:56:59;;;;;;;;;;;20.00;37.70;;;;;;5094753;28;19916;-63
2022/01/30 11:59:35;;;;;;;;;;;19.90;37.60;;;;;;5094330;28;20303;-63
2022/01/30 12:02:29;;;;;;;;;;;20.00;37.50;;;;;;5094464;28;20318;-63
2022/01/30 12:04:55;;;;;;;;;;;20.00;37.60;;;;;;5077009;28;19977;-63
2022/01/30 12:07:41;;;;;;;;;;;20.00;37.40;;;;;;5094326;28;20356;-64
2022/01/30 12:10:15;;;;;;;;;;;20.00;37.50;;;;;;5079619;28;19962;-64
2022/01/30 12:12:47;;;;;;;;;;;20.00;37.50;;;;;;5094110;28;19908;-64
2022/01/30 12:15:30;;;;;;;;;;;20.00;37.50;;;;;;5094175;28;19942;-63
2022/01/30 12:17:56;;;;;;;;;;;20.00;37.50;;;;;;5094122;28;19909;-63
2022/01/30 12:20:22;;;;;;;;;;;20.00;37.40;;;;;;5075885;28;19915;-64
2022/01/30 12:22:48;;;;;;;;;;;20.00;37.40;;;;;;5093936;28;19912;-63
2022/01/30 12:25:43;;;;;;;;;;;20.00;37.40;;;;;;5075633;28;20264;-63
2022/01/30 12:28:09;;;;;;;;;;;20.00;37.40;;;;;;5076147;28;19908;-63
2022/01/30 12:30:36;;;;;;;;;;;20.00;37.40;;;;;;5093797;28;19919;-63
2022/01/30 12:33:02;;;;;;;;;;;20.00;37.30;;;;;;5093437;28;19915;-64
2022/01/30 12:35:28;;;;;;;;;;;20.00;37.40;;;;;;5075615;28;20002;-63
2022/01/30 12:37:54;;;;;;;;;;;20.00;37.30;;;;;;5093714;28;20376;-63
2022/01/30 12:40:20;;;;;;;;;;;20.00;37.40;;;;;;5093838;28;20002;-63
2022/01/30 12:42:46;;;;;;;;;;;20.00;37.40;;;;;;5093625;28;19915;-64
2022/01/30 12:45:12;;;;;;;;;;;20.00;37.40;;;;;;5093573;28;19908;-63
2022/01/30 12:47:48;;;;;;;;;;;20.00;37.40;;;;;;5075421;28;19947;-64
2022/01/30 12:50:14;;;;;;;;;;;20.00;37.40;;;;;;5093593;28;19942;-63
2022/01/30 12:52:40;;;;;;;;;;;20.00;37.40;;;;;;5093894;28;19908;-63
2022/01/30 12:55:11;;;;;;;;;;;20.00;37.40;;;;;;5075767;28;20369;-63
2022/01/30 12:57:38;;;;;;;;;;;20.00;37.40;;;;;;5093636;28;19916;-63
2022/01/30 13:00:05;;;;;;;;;;;20.00;37.40;;;;;;5093275;28;19920;-64
2022/01/30 13:02:34;;;;;;;;;;;20.00;37.40;;;;;;5093391;28;19966;-64
2022/01/30 13:05:25;;;;;;;;;;;20.00;37.30;;;;;;5093424;28;20266;-64
2022/01/30 13:07:52;;;;;;;;;;;20.00;37.30;;;;;;5089400;28;19915;-63
2022/01/30 13:10:17;;;;;;;;;;;20.00;37.40;;;;;;5093695;28;19961;-65
2022/01/30 13:12:44;;;;;;;;;;;20.00;37.40;;;;;;5075417;28;19998;-65
2022/01/30 13:15:11;;;;;;;;;;;20.00;37.30;;;;;;5093338;28;19908;-64
2022/01/30 13:17:36;;;;;;;;;;;20.00;37.30;;;;;;5093644;28;19909;-65
2022/01/30 13:20:03;;;;;;;;;;;20.00;37.30;;;;;;5093294;28;20265;-64
2022/01/30 13:22:34;;;;;;;;;;;20.00;37.30;;;;;;5093411;28;19961;-64
2022/01/30 13:25:01;;;;;;;;;;;20.00;37.30;;;;;;5093269;28;19908;-64
2022/01/30 13:27:26;;;;;;;;;;;20.00;37.30;;;;;;5093469;28;19908;-64
2022/01/30 13:29:55;;;;;;;;;;;20.00;37.20;;;;;;5093166;28;20387;-64
2022/01/30 13:32:22;;;;;;;;;;;20.00;37.30;;;;;;5093188;28;19912;-65
2022/01/30 13:34:48;;;;;;;;;;;20.00;37.20;;;;;;5093168;28;20364;-65
2022/01/30 13:37:15;;;;;;;;;;;20.00;37.20;;;;;;5093462;28;19908;-65
2022/01/30 13:39:49;;;;;;;;;;;20.00;37.20;;;;;;5093101;28;19908;-65
2022/01/30 13:45:07;;;;;;;;;;;20.00;37.20;;;;;;5096462;28;19908;-62
2022/01/30 13:47:33;;;;;;;;;;;20.00;37.20;;;;;;5097281;28;20386;-64
2022/01/30 13:49:59;;;;;;;;;;;20.00;37.20;;;;;;5096877;28;20280;-63
2022/01/30 13:52:31;;;;;;;;;;;20.00;37.20;;;;;;5096734;28;19915;-63
2022/01/30 13:55:05;;;;;;;;;;;20.00;37.20;;;;;;5096723;28;19909;-64
2022/01/30 13:57:32;;;;;;;;;;;20.00;37.20;;;;;;5096866;28;19931;-63
2022/01/30 14:00:06;;;;;;;;;;;20.00;37.20;;;;;;5096559;28;19923;-65
2022/01/30 14:02:32;;;;;;;;;;;20.00;37.20;;;;;;5096676;28;19908;-63
2022/01/30 14:05:17;;;;;;;;;;;20.00;37.20;;;;;;5078330;28;19912;-63
2022/01/30 14:07:43;;;;;;;;;;;20.00;37.20;;;;;;5078321;28;19908;-63
2022/01/30 14:10:08;;;;;;;;;;;20.00;37.10;;;;;;5096552;28;19978;-63
2022/01/30 14:12:40;;;;;;;;;;;20.00;37.10;;;;;;5096779;28;19908;-63
2022/01/30 14:15:08;;;;;;;;;;;20.00;37.10;;;;;;5096585;28;20277;-64
2022/01/30 14:17:33;;;;;;;;;;;20.00;37.20;;;;;;5096414;28;20279;-63
2022/01/30 14:20:07;;;;;;;;;;;20.00;37.20;;;;;;5078186;28;19908;-63
2022/01/30 14:22:34;;;;;;;;;;;20.00;37.10;;;;;;5096452;28;19908;-63
2022/01/30 14:25:05;;;;;;;;;;;20.00;37.10;;;;;;5096279;28;19915;-63
2022/01/30 14:27:34;;;;;;;;;;;20.00;37.10;;;;;;5096064;28;19955;-63
2022/01/30 14:30:03;;;;;;;;;;;20.00;37.10;;;;;;5095898;28;19923;-63
2022/01/30 14:32:30;;;;;;;;;;;20.00;37.10;;;;;;5077634;28;19909;-64
2022/01/30 14:34:55;;;;;;;;;;;20.00;37.10;;;;;;5095960;28;19908;-64
2022/01/30 14:37:21;;;;;;;;;;;20.00;37.00;;;;;;5096398;28;19914;-64
2022/01/30 14:40:16;;;;;;;;;;;20.00;37.00;;;;;;5096058;28;19912;-64
2022/01/30 14:42:41;;;;;;;;;;;20.00;37.10;;;;;;5093056;28;19952;-64
2022/01/30 14:45:07;;;;;;;;;;;20.00;36.90;;;;;;5095923;28;19991;-64
2022/01/30 14:47:32;;;;;;;;;;;20.00;37.00;;;;;;5095863;28;19915;-64
2022/01/30 14:49:58;;;;;;;;;;;20.00;37.00;;;;;;5095519;28;20701;-64
2022/01/30 14:52:23;;;;;;;;;;;20.00;36.90;;;;;;5095395;28;19909;-64
2022/01/30 14:54:49;;;;;;;;;;;20.00;37.00;;;;;;5076967;28;19915;-63
2022/01/30 14:57:15;;;;;;;;;;;20.00;37.00;;;;;;5095612;28;19951;-64
2022/01/30 14:59:40;;;;;;;;;;;20.00;37.00;;;;;;5095453;28;20398;-64
2022/01/30 15:02:06;;;;;;;;;;;20.00;37.00;;;;;;5095653;28;19912;-65
2022/01/30 15:04:33;;;;;;;;;;;20.00;37.00;;;;;;5095233;28;19956;-64
2022/01/30 15:06:59;;;;;;;;;;;20.00;37.00;;;;;;5095544;28;19908;-65